Time;durP1;ratioP1;P1;durP2;ratioP2;P2;SDS_P1;SDS_P2;PMS_P1;PMS_P2;Temp;Humidity;BMP_temperature;BMP_pressure;BME280_temperature;BME280_humidity;BME280_pressure;Samples;Min_cycle;Max_cycle;Signal;HPM_P1;HPM_P2
2022/12/14 00:01:27;;;;;;;49.30;24.80;;;-0.90;99.90;;;;;;5024547;28;20199;-75
2022/12/14 00:03:54;;;;;;;52.63;24.63;;;-0.90;99.90;;;;;;5028278;28;20646;-79
2022/12/14 00:06:26;;;;;;;51.37;23.77;;;-0.90;99.90;;;;;;5028984;28;20185;-75
2022/12/14 00:08:54;;;;;;;50.40;24.57;;;-1.00;99.90;;;;;;5024472;28;20332;-74
2022/12/14 00:11:23;;;;;;;50.87;24.00;;;-1.00;99.90;;;;;;5027962;28;20624;-81
2022/12/14 00:14:00;;;;;;;54.20;23.40;;;-1.00;99.90;;;;;;5023548;28;20196;-75
2022/12/14 00:16:29;;;;;;;45.53;22.67;;;-1.00;99.90;;;;;;5024301;28;20652;-76
2022/12/14 00:18:56;;;;;;;54.73;24.23;;;-1.00;99.90;;;;;;5026437;28;20187;-74
2022/12/14 00:21:23;;;;;;;45.70;22.23;;;-1.00;99.90;;;;;;5028344;28;20282;-74
2022/12/14 00:23:50;;;;;;;45.90;22.53;;;-1.00;99.90;;;;;;5027633;28;20179;-74
2022/12/14 00:26:27;;;;;;;53.73;23.13;;;-1.10;99.90;;;;;;5027959;28;20208;-74
2022/12/14 00:28:54;;;;;;;49.80;23.03;;;-1.10;99.90;;;;;;5026700;28;20429;-80
2022/12/14 00:31:21;;;;;;;49.53;23.07;;;-1.10;99.90;;;;;;5026702;28;20187;-74
2022/12/14 00:33:47;;;;;;;50.90;23.50;;;-1.10;99.90;;;;;;5027279;28;20175;-75
2022/12/14 00:36:13;;;;;;;47.20;23.37;;;-1.10;99.90;;;;;;5028463;28;20188;-74
2022/12/14 00:38:40;;;;;;;48.03;25.20;;;-1.10;99.90;;;;;;5028080;28;20622;-75
2022/12/14 00:41:07;;;;;;;52.43;24.93;;;-1.10;99.90;;;;;;5025894;28;20239;-75
2022/12/14 00:43:32;;;;;;;46.93;24.00;;;-1.10;99.90;;;;;;5028628;28;20186;-75
2022/12/14 00:45:58;;;;;;;46.73;23.93;;;-1.10;99.90;;;;;;5029571;28;20278;-81
2022/12/14 00:48:24;;;;;;;46.37;23.57;;;-1.20;99.90;;;;;;5026430;28;20183;-75
2022/12/14 00:50:51;;;;;;;47.47;23.33;;;-1.20;99.90;;;;;;5026895;28;20198;-76
2022/12/14 00:53:17;;;;;;;56.80;26.37;;;-1.20;99.90;;;;;;5025695;28;20651;-76
2022/12/14 00:55:45;;;;;;;56.20;26.43;;;-1.20;99.90;;;;;;5027780;28;20195;-81
2022/12/14 00:58:13;;;;;;;48.80;23.17;;;-1.30;99.90;;;;;;5028924;28;20644;-74
2022/12/14 01:00:39;;;;;;;46.33;23.73;;;-1.30;99.90;;;;;;5028292;28;20208;-77
2022/12/14 01:03:05;;;;;;;52.30;23.80;;;-1.30;99.90;;;;;;5026637;28;20274;-76
2022/12/14 01:05:33;;;;;;;47.53;22.70;;;-1.40;99.90;;;;;;5024007;28;20189;-74
2022/12/14 01:08:00;;;;;;;49.90;24.17;;;-1.40;99.90;;;;;;5024578;28;20652;-74
2022/12/14 01:10:25;;;;;;;57.63;25.67;;;-1.40;99.90;;;;;;5029083;28;20194;-75
2022/12/14 01:12:51;;;;;;;52.07;25.73;;;-1.40;99.90;;;;;;5027736;28;20184;-74
2022/12/14 01:15:17;;;;;;;52.93;25.00;;;-1.40;99.90;;;;;;5026207;28;20632;-81
2022/12/14 01:17:43;;;;;;;55.43;25.27;;;-1.40;99.90;;;;;;5025664;28;20246;-78
2022/12/14 01:20:09;;;;;;;58.10;27.87;;;-1.50;99.90;;;;;;5027708;28;20644;-76
2022/12/14 01:22:36;;;;;;;59.00;29.40;;;-1.50;99.90;;;;;;5027672;28;20195;-74
2022/12/14 01:25:02;;;;;;;54.53;25.87;;;-1.50;99.90;;;;;;5025766;28;20278;-76
2022/12/14 01:27:28;;;;;;;49.77;25.07;;;-1.50;99.90;;;;;;5044423;28;20545;-80
2022/12/14 01:29:54;;;;;;;59.07;28.57;;;-1.50;99.90;;;;;;5040042;28;20192;-76
2022/12/14 01:32:19;;;;;;;53.13;24.50;;;-1.50;99.90;;;;;;5030231;28;20258;-75
2022/12/14 01:34:47;;;;;;;49.67;23.83;;;-1.50;99.90;;;;;;5044000;28;20712;-75
2022/12/14 01:37:13;;;;;;;56.63;26.17;;;-1.60;99.90;;;;;;5031464;28;20276;-80
2022/12/14 01:39:38;;;;;;;53.53;25.93;;;-1.60;99.90;;;;;;5040204;28;20744;-80
2022/12/14 01:42:10;;;;;;;56.60;25.93;;;-1.60;99.90;;;;;;5029614;28;20243;-80
2022/12/14 01:44:38;;;;;;;46.00;23.33;;;-1.60;99.90;;;;;;5042175;28;20173;-76
2022/12/14 01:47:06;;;;;;;51.67;24.30;;;-1.60;99.90;;;;;;5046293;28;20592;-77
2022/12/14 01:49:46;;;;;;;48.60;24.53;;;-1.60;99.90;;;;;;5031071;28;20244;-74
2022/12/14 01:52:16;;;;;;;57.83;25.43;;;-1.70;99.90;;;;;;5030017;28;20182;-78
2022/12/14 01:54:53;;;;;;;54.43;26.00;;;-1.70;99.90;;;;;;5041014;28;20623;-78
2022/12/14 01:57:27;;;;;;;52.87;25.57;;;-1.80;99.90;;;;;;5034630;28;20183;-76
2022/12/14 01:59:55;;;;;;;50.57;25.43;;;-1.80;99.90;;;;;;5043800;28;20195;-75
2022/12/14 02:02:21;;;;;;;53.10;24.47;;;-1.80;99.90;;;;;;5028104;28;20588;-75
2022/12/14 02:04:53;;;;;;;52.50;25.77;;;-1.90;99.90;;;;;;5041800;28;20184;-76
2022/12/14 02:07:19;;;;;;;54.83;25.47;;;-2.00;99.90;;;;;;5026927;28;20184;-74
2022/12/14 02:09:45;;;;;;;56.50;25.20;;;-2.10;99.90;;;;;;5027930;28;20538;-81
2022/12/14 02:12:31;;;;;;;53.47;26.30;;;-2.10;99.90;;;;;;5026756;28;20176;-82
2022/12/14 02:14:59;;;;;;;49.07;24.37;;;-2.10;99.90;;;;;;5026444;28;20267;-74
2022/12/14 02:17:26;;;;;;;60.03;25.57;;;-2.10;99.90;;;;;;5036148;28;20229;-77
2022/12/14 02:19:52;;;;;;;51.67;24.77;;;-2.10;99.90;;;;;;5029516;28;20211;-77
2022/12/14 02:22:45;;;;;;;54.03;25.63;;;-2.10;99.90;;;;;;5024386;28;20769;-77
2022/12/14 02:25:30;;;;;;;51.93;24.87;;;-2.20;99.90;;;;;;5028233;28;20717;-78
2022/12/14 02:28:26;;;;;;;56.53;26.80;;;-2.30;99.90;;;;;;5027444;28;20188;-82
2022/12/14 02:31:05;;;;;;;60.40;25.70;;;-2.20;99.90;;;;;;5026989;28;20274;-81
2022/12/14 02:33:47;;;;;;;59.33;25.77;;;-2.30;99.90;;;;;;5027635;28;20179;-77
2022/12/14 02:36:33;;;;;;;51.37;23.80;;;-2.30;99.90;;;;;;5027361;28;20426;-75
2022/12/14 02:39:08;;;;;;;56.10;25.60;;;-2.30;99.90;;;;;;5023899;28;20940;-76
2022/12/14 02:41:51;;;;;;;56.07;26.63;;;-2.20;99.90;;;;;;5024830;28;20218;-75
2022/12/14 02:44:23;;;;;;;58.70;26.53;;;-2.20;99.90;;;;;;5028539;28;20222;-82
2022/12/14 02:46:52;;;;;;;57.83;27.03;;;-2.30;99.90;;;;;;5028244;28;20259;-76
2022/12/14 02:49:39;;;;;;;50.53;23.63;;;-2.30;99.90;;;;;;5029471;28;20286;-80
2022/12/14 02:52:43;;;;;;;53.73;24.70;;;-2.30;99.90;;;;;;5029758;28;20286;-79
2022/12/14 02:55:15;;;;;;;60.40;25.00;;;-2.40;99.90;;;;;;5028678;28;20275;-75
2022/12/14 02:58:12;;;;;;;50.97;24.27;;;-2.50;99.90;;;;;;5025463;28;20202;-79
2022/12/14 03:00:38;;;;;;;54.50;25.17;;;-2.60;99.90;;;;;;5027181;28;20254;-80
2022/12/14 03:03:05;;;;;;;55.33;25.07;;;-2.60;99.90;;;;;;5027622;28;20187;-75
2022/12/14 03:05:31;;;;;;;51.07;23.20;;;-2.60;99.90;;;;;;5023108;28;20215;-79
2022/12/14 03:08:01;;;;;;;53.57;24.43;;;-2.70;99.90;;;;;;5026646;28;20412;-75
2022/12/14 03:10:33;;;;;;;51.30;23.23;;;-2.70;99.90;;;;;;5027898;28;20210;-74
2022/12/14 03:13:11;;;;;;;56.40;25.10;;;-2.70;99.90;;;;;;5023195;28;20262;-80
2022/12/14 03:15:40;;;;;;;57.77;25.70;;;-2.70;99.90;;;;;;5028991;28;20206;-78
2022/12/14 03:18:10;;;;;;;51.53;25.30;;;-2.80;99.90;;;;;;5055811;28;20330;-74
2022/12/14 03:20:38;;;;;;;59.27;25.10;;;-2.80;99.90;;;;;;5028455;28;20219;-81
2022/12/14 03:23:11;;;;;;;59.83;24.63;;;-2.80;99.90;;;;;;5028378;28;20536;-75
2022/12/14 03:25:49;;;;;;;59.47;26.60;;;-2.80;99.90;;;;;;5025599;28;20204;-76
2022/12/14 03:28:25;;;;;;;56.20;26.10;;;-2.80;99.90;;;;;;5033232;28;20184;-75
2022/12/14 03:30:56;;;;;;;60.47;28.20;;;-2.80;99.90;;;;;;5034088;28;20214;-79
2022/12/14 03:33:26;;;;;;;57.17;26.40;;;-2.80;99.90;;;;;;5038591;28;20180;-76
2022/12/14 03:35:56;;;;;;;53.90;25.37;;;-2.70;99.90;;;;;;5026800;28;20188;-76
2022/12/14 03:38:25;;;;;;;54.23;25.20;;;-2.80;99.90;;;;;;5043330;28;20184;-81
2022/12/14 03:41:19;;;;;;;57.07;25.57;;;-2.80;99.90;;;;;;5026449;28;20258;-76
2022/12/14 03:44:04;;;;;;;56.63;24.50;;;-2.70;99.90;;;;;;5039545;28;20210;-76
2022/12/14 03:46:37;;;;;;;50.17;21.30;;;-2.80;99.90;;;;;;5029296;28;20175;-79
2022/12/14 03:49:14;;;;;;;61.07;23.77;;;-2.80;99.90;;;;;;5059908;28;20275;-74
2022/12/14 03:52:05;;;;;;;57.50;25.07;;;-2.90;99.90;;;;;;5028693;28;20362;-75
2022/12/14 03:54:53;;;;;;;53.53;25.13;;;-2.90;99.90;;;;;;5028150;28;20268;-80
2022/12/14 03:57:42;;;;;;;53.47;23.20;;;-3.00;99.90;;;;;;5033825;28;22970;-75
2022/12/14 04:00:15;;;;;;;49.10;22.47;;;-3.00;99.90;;;;;;5026790;28;20613;-75
2022/12/14 04:02:46;;;;;;;56.97;26.20;;;-3.10;99.90;;;;;;5025877;28;20187;-74
2022/12/14 04:05:23;;;;;;;50.87;25.27;;;-3.10;99.90;;;;;;5031357;28;20192;-75
2022/12/14 04:07:49;;;;;;;51.70;24.47;;;-3.10;99.90;;;;;;5024425;28;20686;-81
2022/12/14 04:18:59;;;;;;;59.90;24.27;;;-3.10;99.90;;;;;;5059656;28;20203;-80
2022/12/14 04:21:37;;;;;;;59.60;26.83;;;-3.10;99.90;;;;;;5028463;28;20236;-76
2022/12/14 04:27:25;;;;;;;49.40;24.10;;;-3.10;99.90;;;;;;5027526;28;20199;-79
2022/12/14 04:29:55;;;;;;;56.47;24.40;;;-3.00;99.90;;;;;;5027322;28;20266;-76
2022/12/14 04:32:33;;;;;;;53.37;24.33;;;-3.10;99.90;;;;;;5028143;28;20187;-75
2022/12/14 04:35:27;;;;;;;52.57;24.07;;;-3.10;99.90;;;;;;5030058;28;20233;-75
2022/12/14 04:38:31;;;;;;;53.90;24.30;;;-3.10;99.90;;;;;;5029424;28;20195;-75
2022/12/14 04:41:02;;;;;;;51.73;23.43;;;-3.20;99.90;;;;;;4990321;28;20226;-75
2022/12/14 04:43:34;;;;;;;55.50;22.23;;;-3.20;99.90;;;;;;5028809;28;20203;-76
2022/12/14 04:46:14;;;;;;;58.77;26.90;;;-3.30;99.90;;;;;;5029862;28;22427;-77
2022/12/14 04:48:52;;;;;;;54.30;25.07;;;-3.30;99.90;;;;;;5027341;28;20171;-74
2022/12/14 04:51:39;;;;;;;53.67;24.20;;;-3.30;99.90;;;;;;5028789;28;20709;-75
2022/12/14 04:54:25;;;;;;;56.03;25.57;;;-3.30;99.90;;;;;;5025434;28;20179;-75
2022/12/14 04:56:55;;;;;;;58.63;23.83;;;-3.30;99.90;;;;;;5059178;28;20277;-79
2022/12/14 04:59:21;;;;;;;49.77;22.90;;;-3.40;99.90;;;;;;5028343;28;20262;-77
2022/12/14 05:01:53;;;;;;;56.07;24.13;;;-3.40;99.90;;;;;;5037765;28;20238;-82
2022/12/14 05:04:32;;;;;;;54.10;23.60;;;-3.50;99.90;;;;;;5027762;28;20172;-75
2022/12/14 05:07:32;;;;;;;59.37;24.00;;;-3.50;99.90;;;;;;5030125;28;20176;-80
2022/12/14 05:10:10;;;;;;;56.73;25.20;;;-3.50;99.90;;;;;;5029377;28;20179;-75
2022/12/14 05:13:13;;;;;;;51.37;21.57;;;-3.50;99.90;;;;;;5032059;28;20186;-76
2022/12/14 05:15:48;;;;;;;59.00;23.20;;;-3.50;99.90;;;;;;5042957;28;20179;-79
2022/12/14 05:18:14;;;;;;;67.53;23.17;;;-3.50;99.90;;;;;;5044646;28;20670;-75
2022/12/14 05:20:40;;;;;;;56.97;24.83;;;-3.50;99.90;;;;;;5031518;28;20219;-80
2022/12/14 05:23:06;;;;;;;58.97;23.30;;;-3.50;99.90;;;;;;5037150;28;20558;-75
2022/12/14 05:25:31;;;;;;;60.97;25.30;;;-3.60;99.90;;;;;;5030108;28;20224;-77
2022/12/14 05:27:57;;;;;;;53.00;22.97;;;-3.60;99.90;;;;;;5028787;28;20203;-79
2022/12/14 05:30:23;;;;;;;59.33;24.67;;;-3.60;99.90;;;;;;5031745;28;20643;-76
2022/12/14 05:32:49;;;;;;;62.03;26.10;;;-3.60;99.90;;;;;;5031516;28;20180;-75
2022/12/14 05:35:15;;;;;;;63.77;25.47;;;-3.70;99.90;;;;;;5026806;28;20192;-75
2022/12/14 05:37:41;;;;;;;62.77;26.70;;;-3.70;99.90;;;;;;5028549;28;20271;-81
2022/12/14 05:40:08;;;;;;;60.83;25.10;;;-3.70;99.90;;;;;;5033701;28;20284;-81
2022/12/14 05:42:33;;;;;;;70.30;26.27;;;-3.70;99.90;;;;;;5040097;28;20223;-79
2022/12/14 05:44:59;;;;;;;56.70;24.27;;;-3.60;99.90;;;;;;5030509;28;20241;-77
2022/12/14 05:47:26;;;;;;;58.33;24.43;;;-3.60;99.90;;;;;;5030379;28;20188;-77
2022/12/14 05:49:51;;;;;;;60.20;24.93;;;-3.60;99.90;;;;;;5027993;28;20196;-83
2022/12/14 05:52:18;;;;;;;59.83;26.40;;;-3.60;99.90;;;;;;5030477;28;20665;-76
2022/12/14 05:54:43;;;;;;;61.20;25.40;;;-3.60;99.90;;;;;;5032804;28;20184;-75
2022/12/14 05:57:09;;;;;;;64.80;26.20;;;-3.50;99.90;;;;;;5032823;28;20254;-75
2022/12/14 05:59:35;;;;;;;62.13;27.27;;;-3.50;99.90;;;;;;5062718;28;20802;-77
2022/12/14 06:02:01;;;;;;;60.83;26.90;;;-3.50;99.90;;;;;;5029474;28;20208;-75
2022/12/14 06:04:27;;;;;;;54.83;24.47;;;-3.50;99.90;;;;;;5030153;28;20184;-76
2022/12/14 06:06:52;;;;;;;59.20;26.03;;;-3.50;99.90;;;;;;5029814;28;20207;-78
2022/12/14 06:09:18;;;;;;;57.97;25.37;;;-3.50;99.90;;;;;;5029625;28;20184;-76
2022/12/14 06:11:46;;;;;;;58.80;24.27;;;-3.50;99.90;;;;;;5028363;28;20271;-80
2022/12/14 06:14:12;;;;;;;62.20;26.47;;;-3.50;99.90;;;;;;5027787;28;20206;-74
2022/12/14 06:16:40;;;;;;;59.17;25.17;;;-3.60;99.90;;;;;;5021763;28;20245;-77
2022/12/14 06:19:06;;;;;;;65.83;27.37;;;-3.50;99.90;;;;;;5029571;28;20187;-74
2022/12/14 06:21:34;;;;;;;59.50;24.97;;;-3.50;99.90;;;;;;5027555;28;20192;-74
2022/12/14 06:24:00;;;;;;;56.07;25.60;;;-3.50;99.90;;;;;;5045510;28;20183;-74
2022/12/14 06:26:28;;;;;;;56.17;26.20;;;-3.50;99.90;;;;;;5060728;28;20207;-74
2022/12/14 06:28:55;;;;;;;60.83;28.20;;;-3.50;99.90;;;;;;5026135;28;20191;-74
2022/12/14 06:31:23;;;;;;;70.20;29.30;;;-3.50;99.90;;;;;;5028867;28;20318;-73
2022/12/14 06:33:50;;;;;;;60.97;24.23;;;-3.50;99.90;;;;;;5028967;28;20422;-76
2022/12/14 06:36:23;;;;;;;53.73;22.87;;;-3.50;99.90;;;;;;5029212;28;20231;-74
2022/12/14 06:38:50;;;;;;;59.47;25.10;;;-3.60;99.90;;;;;;5027633;28;20658;-74
2022/12/14 06:41:16;;;;;;;62.77;26.23;;;-3.60;99.90;;;;;;5023878;28;20216;-73
2022/12/14 06:43:42;;;;;;;61.63;25.23;;;-3.60;99.90;;;;;;5030374;28;20180;-75
2022/12/14 06:46:13;;;;;;;63.13;25.07;;;-3.60;99.90;;;;;;5032839;28;20218;-73
2022/12/14 06:48:39;;;;;;;55.80;24.60;;;-3.60;99.90;;;;;;5047862;28;20184;-73
2022/12/14 06:51:05;;;;;;;62.40;27.33;;;-3.50;99.90;;;;;;5031796;28;20207;-73
2022/12/14 06:53:32;;;;;;;64.73;26.50;;;-3.50;99.90;;;;;;5030767;28;20541;-74
2022/12/14 06:56:17;;;;;;;60.67;24.47;;;-3.60;99.90;;;;;;5032792;28;20188;-74
2022/12/14 06:58:43;;;;;;;54.60;23.23;;;-3.60;99.90;;;;;;5030210;28;20242;-76
2022/12/14 07:01:19;;;;;;;59.93;25.87;;;-3.60;99.90;;;;;;5031702;28;20310;-75
2022/12/14 07:03:50;;;;;;;63.07;24.20;;;-3.70;99.90;;;;;;5032049;28;20249;-73
2022/12/14 07:06:16;;;;;;;57.90;24.73;;;-3.70;99.90;;;;;;5045761;28;20187;-74
2022/12/14 07:08:42;;;;;;;61.07;25.53;;;-3.60;99.90;;;;;;5032311;28;20192;-73
2022/12/14 07:11:11;;;;;;;63.60;26.43;;;-3.70;99.90;;;;;;5023974;28;20192;-75
2022/12/14 07:13:37;;;;;;;57.17;24.50;;;-3.70;99.90;;;;;;5047240;28;20589;-74
2022/12/14 07:16:04;;;;;;;58.57;23.87;;;-3.70;99.90;;;;;;5026775;28;20196;-75
2022/12/14 07:18:30;;;;;;;60.10;25.23;;;-3.70;99.90;;;;;;5018207;28;20184;-75
2022/12/14 07:21:10;;;;;;;61.33;23.73;;;-3.70;99.90;;;;;;5050573;28;20633;-74
2022/12/14 07:23:37;;;;;;;57.80;24.70;;;-3.70;99.90;;;;;;5049338;28;20188;-75
2022/12/14 07:26:11;;;;;;;54.73;23.60;;;-3.80;99.90;;;;;;5020807;28;20285;-75
2022/12/14 07:28:38;;;;;;;61.83;23.70;;;-3.70;99.90;;;;;;5026956;28;20182;-74
2022/12/14 07:31:24;;;;;;;58.33;23.93;;;-3.80;99.90;;;;;;5031099;28;20187;-75
2022/12/14 07:33:55;;;;;;;63.20;22.97;;;-3.80;99.90;;;;;;5025469;28;20180;-74
2022/12/14 07:36:22;;;;;;;62.83;24.83;;;-3.80;99.90;;;;;;5025776;28;20226;-74
2022/12/14 07:38:49;;;;;;;56.13;25.17;;;-3.80;99.90;;;;;;5026784;28;20181;-76
2022/12/14 07:41:21;;;;;;;57.10;24.33;;;-3.70;99.90;;;;;;5027013;28;20298;-74
2022/12/14 07:43:47;;;;;;;57.47;25.90;;;-3.70;99.90;;;;;;5027936;28;20280;-75
2022/12/14 07:46:15;;;;;;;59.90;25.93;;;-3.70;99.90;;;;;;5024214;28;20268;-74
2022/12/14 07:48:46;;;;;;;61.87;26.03;;;-3.70;99.90;;;;;;5027631;28;20184;-74
2022/12/14 07:51:15;;;;;;;60.63;25.57;;;-3.70;99.90;;;;;;5045594;28;20184;-74
2022/12/14 07:53:42;;;;;;;59.83;25.20;;;-3.70;99.90;;;;;;5031358;28;20231;-74
2022/12/14 07:56:21;;;;;;;63.10;26.63;;;-3.70;99.90;;;;;;5024763;28;20589;-77
2022/12/14 07:58:47;;;;;;;57.30;24.33;;;-3.70;99.90;;;;;;5032670;28;20180;-75
2022/12/14 08:01:19;;;;;;;55.87;25.90;;;-3.70;99.90;;;;;;5031928;28;20786;-74
2022/12/14 08:04:06;;;;;;;57.13;24.27;;;-3.70;99.90;;;;;;5025090;28;20195;-74
2022/12/14 08:06:32;;;;;;;48.03;22.03;;;-3.70;99.90;;;;;;5030457;28;20194;-74
2022/12/14 08:08:59;;;;;;;65.23;25.33;;;-3.70;99.90;;;;;;5029834;28;20192;-74
2022/12/14 08:11:25;;;;;;;58.30;24.70;;;-3.70;99.90;;;;;;5019431;28;20192;-75
2022/12/14 08:13:53;;;;;;;56.07;23.33;;;-3.70;99.90;;;;;;5037856;28;20651;-75
2022/12/14 08:16:19;;;;;;;50.13;22.87;;;-3.70;99.90;;;;;;5027353;28;20199;-75
2022/12/14 08:18:45;;;;;;;55.10;23.27;;;-3.60;99.90;;;;;;5025219;28;20180;-74
2022/12/14 08:21:14;;;;;;;69.10;24.63;;;-3.60;99.90;;;;;;5031013;28;20675;-77
2022/12/14 08:23:42;;;;;;;56.30;22.67;;;-3.60;99.90;;;;;;5031462;28;20210;-75
2022/12/14 08:26:08;;;;;;;59.07;24.73;;;-3.60;99.90;;;;;;5030003;28;20340;-75
2022/12/14 08:28:35;;;;;;;58.67;25.30;;;-3.60;99.90;;;;;;5023549;28;20570;-75
2022/12/14 08:31:09;;;;;;;58.63;24.47;;;-3.50;99.90;;;;;;5048203;28;20345;-75
2022/12/14 08:33:36;;;;;;;53.80;23.97;;;-3.50;99.90;;;;;;5029745;28;20203;-75
2022/12/14 08:36:11;;;;;;;58.70;24.40;;;-3.50;99.90;;;;;;5016961;28;20902;-75
2022/12/14 08:38:38;;;;;;;55.93;23.47;;;-3.50;99.90;;;;;;5023375;28;20190;-75
2022/12/14 08:41:05;;;;;;;58.67;23.87;;;-3.40;99.90;;;;;;5031479;28;20219;-74
2022/12/14 08:43:31;;;;;;;61.23;24.13;;;-3.40;99.90;;;;;;5023372;28;20711;-74
2022/12/14 08:45:57;;;;;;;58.00;22.93;;;-3.30;99.90;;;;;;5020119;28;20192;-74
2022/12/14 08:48:23;;;;;;;68.80;24.87;;;-3.30;99.90;;;;;;5044909;28;20648;-75
2022/12/14 08:50:49;;;;;;;57.30;24.07;;;-3.30;99.90;;;;;;5030777;28;20191;-78
2022/12/14 08:53:15;;;;;;;59.60;25.07;;;-3.30;99.90;;;;;;5024227;28;20191;-80
2022/12/14 08:55:41;;;;;;;57.77;22.70;;;-3.20;99.90;;;;;;5027083;28;20192;-76
2022/12/14 08:58:07;;;;;;;58.80;24.57;;;-3.10;99.90;;;;;;5048845;28;20271;-75
2022/12/14 09:00:33;;;;;;;54.83;24.23;;;-2.90;99.90;;;;;;5012992;28;20216;-75
2022/12/14 09:02:58;;;;;;;51.53;23.73;;;-2.70;99.90;;;;;;5018958;28;20677;-75
2022/12/14 09:05:24;;;;;;;53.27;22.27;;;-2.40;99.90;;;;;;5038224;28;20187;-76
2022/12/14 09:07:50;;;;;;;51.93;23.20;;;-2.00;99.90;;;;;;5025328;28;20179;-75
2022/12/14 09:10:16;;;;;;;52.10;22.63;;;-1.70;99.90;;;;;;5047982;28;20636;-75
2022/12/14 09:12:41;;;;;;;48.07;22.10;;;-1.30;99.90;;;;;;5035144;28;20190;-76
2022/12/14 09:15:07;;;;;;;59.97;25.43;;;-0.90;99.90;;;;;;5008349;28;20206;-82
2022/12/14 09:17:33;;;;;;;48.03;21.00;;;-0.60;99.90;;;;;;5037369;28;20176;-76
2022/12/14 09:19:59;;;;;;;52.20;23.87;;;-0.40;99.90;;;;;;5051019;28;20269;-76
2022/12/14 09:22:25;;;;;;;47.60;23.00;;;-0.10;99.90;;;;;;5043442;28;20275;-76
2022/12/14 09:24:51;;;;;;;45.37;23.17;;;0.00;99.90;;;;;;5028135;28;20181;-76
2022/12/14 09:27:17;;;;;;;56.77;24.97;;;0.10;99.90;;;;;;5019638;28;20208;-79
2022/12/14 09:29:43;;;;;;;51.13;25.90;;;0.30;99.90;;;;;;5025788;28;20270;-76
2022/12/14 09:32:09;;;;;;;54.47;23.90;;;0.50;99.90;;;;;;5026622;28;20358;-76
2022/12/14 09:34:35;;;;;;;47.00;23.70;;;0.70;99.90;;;;;;5031322;28;20184;-76
2022/12/14 09:37:06;;;;;;;47.78;23.15;;;0.80;99.90;;;;;;5031698;28;20191;-75
2022/12/14 09:39:32;;;;;;;49.43;23.57;;;0.90;99.90;;;;;;5031725;28;20188;-74
2022/12/14 09:42:12;;;;;;;54.10;24.27;;;1.00;99.90;;;;;;5026569;28;20874;-75
2022/12/14 09:45:01;;;;;;;45.27;23.77;;;1.30;99.90;;;;;;5026866;28;20698;-81
2022/12/14 09:47:50;;;;;;;46.10;23.77;;;1.40;99.90;;;;;;5015878;28;20180;-75
2022/12/14 09:50:21;;;;;;;42.92;23.65;;;1.60;99.90;;;;;;5025980;28;20570;-75
2022/12/14 09:53:06;;;;;;;50.10;22.25;;;1.70;99.90;;;;;;5068924;28;20518;-75
2022/12/14 09:55:45;;;;;;;46.22;23.88;;;1.90;99.90;;;;;;5056998;28;20172;-75
2022/12/14 09:58:23;;;;;;;45.33;23.77;;;2.00;99.90;;;;;;5027059;28;20177;-75
2022/12/14 10:01:03;;;;;;;53.00;24.48;;;2.10;99.90;;;;;;5038077;28;20560;-83
2022/12/14 10:04:03;;;;;;;47.67;24.90;;;2.20;99.90;;;;;;5025979;28;20218;-76
2022/12/14 10:06:29;;;;;;;47.35;24.75;;;2.40;99.90;;;;;;5050955;28;20206;-79
2022/12/14 10:09:16;;;;;;;44.08;23.60;;;2.50;99.90;;;;;;5034964;28;20192;-76
2022/12/14 10:12:07;;;;;;;43.47;23.23;;;2.60;99.90;;;;;;5027253;28;20180;-78
2022/12/14 10:14:51;;;;;;;45.60;22.65;;;2.70;99.90;;;;;;5029839;28;20176;-76
2022/12/14 10:17:36;;;;;;;40.22;22.15;;;2.90;99.90;;;;;;5034525;28;20195;-77
2022/12/14 10:20:10;;;;;;;44.50;22.88;;;3.30;99.90;;;;;;5019057;28;20292;-76
2022/12/14 10:22:45;;;;;;;41.63;21.33;;;3.50;99.90;;;;;;5036436;28;20190;-76
2022/12/14 10:25:24;;;;;;;36.25;20.38;;;3.60;99.90;;;;;;5044282;28;20250;-77
2022/12/14 10:27:57;;;;;;;37.65;19.95;;;3.80;99.90;;;;;;5029103;28;20200;-79
2022/12/14 10:30:23;;;;;;;36.30;19.65;;;4.00;99.90;;;;;;5027232;28;20191;-83
2022/12/14 10:32:53;;;;;;;38.47;20.92;;;4.20;99.90;;;;;;5033022;28;20180;-76
2022/12/14 10:35:26;;;;;;;37.08;20.77;;;4.30;99.90;;;;;;5034775;28;20205;-74
2022/12/14 10:38:02;;;;;;;39.50;21.00;;;4.60;99.90;;;;;;5034848;28;20180;-77
2022/12/14 10:40:30;;;;;;;41.75;22.33;;;4.70;99.90;;;;;;5033252;28;20222;-76
2022/12/14 10:42:56;;;;;;;38.78;21.92;;;4.80;99.90;;;;;;5046362;28;20223;-80
2022/12/14 10:45:58;;;;;;;38.65;20.63;;;5.00;99.90;;;;;;5034850;28;20206;-77
2022/12/14 10:48:57;;;;;;;34.72;18.80;;;5.20;99.90;;;;;;5033761;28;20183;-76
2022/12/14 10:51:36;;;;;;;32.53;18.77;;;5.30;99.90;;;;;;5030246;28;20187;-78
2022/12/14 10:54:10;;;;;;;34.28;19.02;;;5.30;99.90;;;;;;5017955;28;20188;-76
2022/12/14 10:56:40;;;;;;;36.83;19.58;;;5.40;99.90;;;;;;5015061;28;20604;-75
2022/12/14 10:59:21;;;;;;;35.72;19.70;;;5.50;99.90;;;;;;5025088;28;20212;-75
2022/12/14 11:02:02;;;;;;;37.08;20.42;;;5.50;99.90;;;;;;5050186;28;20250;-76
2022/12/14 11:04:31;;;;;;;40.97;21.52;;;5.70;99.90;;;;;;5044577;28;20644;-76
2022/12/14 11:07:09;;;;;;;36.95;21.27;;;5.80;99.50;;;;;;5014196;28;20659;-75
2022/12/14 11:09:37;;;;;;;34.05;19.90;;;5.90;99.00;;;;;;5031971;28;20218;-77
2022/12/14 11:12:21;;;;;;;33.38;18.60;;;6.00;98.80;;;;;;5031191;28;20191;-75
2022/12/14 11:14:51;;;;;;;30.30;16.75;;;6.00;98.50;;;;;;5023169;28;20246;-76
2022/12/14 11:17:34;;;;;;;29.38;17.77;;;6.00;98.10;;;;;;5014423;28;20212;-78
2022/12/14 11:20:08;;;;;;;30.77;17.17;;;6.10;97.70;;;;;;5033957;28;20655;-76
2022/12/14 11:22:58;;;;;;;28.08;16.52;;;6.20;97.40;;;;;;5030604;28;20287;-77
2022/12/14 11:25:38;;;;;;;27.60;15.55;;;6.20;97.10;;;;;;5058316;28;20613;-83
2022/12/14 11:28:28;;;;;;;27.00;15.85;;;6.30;96.80;;;;;;5021172;28;20278;-78
2022/12/14 11:31:29;;;;;;;26.88;16.08;;;6.30;96.30;;;;;;5032084;28;20203;-76
2022/12/14 11:33:57;;;;;;;29.35;17.13;;;6.40;96.10;;;;;;5003827;28;20191;-75
2022/12/14 11:36:39;;;;;;;27.70;16.63;;;6.40;95.60;;;;;;5019822;28;20640;-75
2022/12/14 11:39:12;;;;;;;27.65;16.17;;;6.40;95.30;;;;;;5033153;28;20218;-76
2022/12/14 11:41:43;;;;;;;30.95;17.33;;;6.40;94.90;;;;;;5032348;28;20734;-78
2022/12/14 11:44:15;;;;;;;31.05;16.65;;;6.40;94.50;;;;;;5049307;28;20284;-77
2022/12/14 11:47:00;;;;;;;30.90;16.85;;;6.50;94.40;;;;;;5033496;28;20168;-75
2022/12/14 11:49:35;;;;;;;32.38;17.45;;;6.60;94.00;;;;;;5032461;28;20183;-77
2022/12/14 11:52:24;;;;;;;31.48;17.17;;;6.60;93.60;;;;;;5033213;28;20175;-75
2022/12/14 11:54:55;;;;;;;28.55;16.20;;;6.60;93.30;;;;;;5030279;28;20187;-76
2022/12/14 11:57:32;;;;;;;27.42;16.60;;;6.60;93.10;;;;;;5027405;28;20229;-76
2022/12/14 12:00:20;;;;;;;25.83;15.18;;;6.60;92.80;;;;;;5032093;28;20211;-76
2022/12/14 12:03:01;;;;;;;26.90;15.48;;;6.60;92.40;;;;;;5030346;28;20308;-76
2022/12/14 12:05:31;;;;;;;26.75;14.70;;;6.70;92.20;;;;;;5030081;28;20294;-76
2022/12/14 12:07:59;;;;;;;23.77;13.98;;;6.70;92.00;;;;;;5025368;28;20227;-76
2022/12/14 12:10:47;;;;;;;23.73;14.65;;;6.70;91.70;;;;;;5019775;28;20314;-76
2022/12/14 12:13:34;;;;;;;24.80;14.65;;;6.80;91.40;;;;;;5015004;28;20219;-76
2022/12/14 12:16:26;;;;;;;25.55;14.20;;;6.80;91.00;;;;;;5048016;28;20168;-76
2022/12/14 12:18:55;;;;;;;22.52;13.85;;;6.90;90.70;;;;;;5024210;28;20287;-76
2022/12/14 12:21:27;;;;;;;24.92;14.77;;;6.90;90.30;;;;;;5065265;28;20230;-77
2022/12/14 12:24:12;;;;;;;26.88;14.52;;;6.80;89.70;;;;;;5035152;28;20213;-77
2022/12/14 12:26:59;;;;;;;28.88;15.43;;;6.70;89.80;;;;;;5018926;28;20266;-76
2022/12/14 12:29:29;;;;;;;25.65;14.32;;;6.70;89.70;;;;;;5061624;28;20180;-76
2022/12/14 12:32:19;;;;;;;21.50;13.57;;;6.70;89.50;;;;;;5033166;28;20662;-76
2022/12/14 12:34:53;;;;;;;22.08;13.02;;;6.60;88.10;;;;;;5032511;28;20211;-76
2022/12/14 12:37:41;;;;;;;26.25;14.23;;;6.40;88.50;;;;;;5032059;28;20265;-77
2022/12/14 12:40:15;;;;;;;21.30;12.73;;;6.40;89.00;;;;;;5038927;28;20231;-77
2022/12/14 12:42:50;;;;;;;21.13;11.98;;;6.40;88.30;;;;;;5031216;28;20243;-77
2022/12/14 12:46:00;;;;;;;25.33;13.23;;;6.40;88.00;;;;;;5048253;28;20202;-76
2022/12/14 12:48:51;;;;;;;21.70;13.38;;;6.40;87.80;;;;;;5003017;28;20203;-76
2022/12/14 12:51:24;;;;;;;23.13;13.23;;;6.50;87.60;;;;;;5028718;28;20199;-78
2022/12/14 12:53:55;;;;;;;21.92;12.80;;;6.40;87.00;;;;;;5028753;28;20266;-83
2022/12/14 12:56:24;;;;;;;23.33;13.35;;;6.40;86.50;;;;;;5026290;28;20965;-85
2022/12/14 12:58:52;;;;;;;23.52;13.43;;;6.50;87.70;;;;;;5050916;28;20279;-77
2022/12/14 13:01:41;;;;;;;24.05;13.43;;;6.50;87.40;;;;;;5013130;28;20269;-77
2022/12/14 13:04:27;;;;;;;22.25;13.45;;;6.60;87.50;;;;;;5028466;28;20270;-76
2022/12/14 13:07:05;;;;;;;22.80;12.98;;;6.70;88.00;;;;;;5032798;28;20543;-75
2022/12/14 13:09:39;;;;;;;23.13;13.85;;;6.70;87.90;;;;;;5040806;28;20183;-76
2022/12/14 13:12:29;;;;;;;19.75;12.32;;;6.80;87.40;;;;;;5040746;28;20187;-81